Time;durP1;ratioP1;P1;durP2;ratioP2;P2;SDS_P1;SDS_P2;PMS_P1;PMS_P2;Temp;Humidity;BMP_temperature;BMP_pressure;BME280_temperature;BME280_humidity;BME280_pressure;Samples;Min_cycle;Max_cycle;Signal;HPM_P1;HPM_P2
2022/06/26 00:00:39;;;;;;;1999.90;999.90;;;;;;;;;;5130481;27;20390;-71
2022/06/26 00:03:07;;;;;;;1999.90;999.90;;;;;;;;;;5123737;27;20402;-71
2022/06/26 00:05:35;;;;;;;1999.90;999.90;;;;;;;;;;5126031;27;20402;-70
2022/06/26 00:08:03;;;;;;;1999.90;999.90;;;;;;;;;;5122193;27;20391;-70
2022/06/26 00:10:31;;;;;;;1999.90;999.90;;;;;;;;;;5125426;27;20401;-73
2022/06/26 00:12:59;;;;;;;1999.90;999.90;;;;;;;;;;5122272;27;20935;-70
2022/06/26 00:15:28;;;;;;;1999.90;999.90;;;;;;;;;;5123752;27;20416;-71
2022/06/26 00:17:56;;;;;;;1999.90;999.90;;;;;;;;;;5127608;27;20401;-70
2022/06/26 00:20:24;;;;;;;1999.90;999.90;;;;;;;;;;5121651;27;20530;-69
2022/06/26 00:22:51;;;;;;;1999.90;999.90;;;;;;;;;;5122035;27;20925;-71
2022/06/26 00:25:19;;;;;;;1999.90;999.90;;;;;;;;;;5124328;27;20413;-71
2022/06/26 00:27:47;;;;;;;1999.90;999.90;;;;;;;;;;5121993;27;20386;-72
2022/06/26 00:30:14;;;;;;;1999.90;999.90;;;;;;;;;;5124659;27;20443;-71
2022/06/26 00:32:44;;;;;;;1999.90;999.90;;;;;;;;;;5108113;27;20486;-72
2022/06/26 00:35:12;;;;;;;1999.90;999.90;;;;;;;;;;5127933;27;20432;-71
2022/06/26 00:37:41;;;;;;;1999.90;999.90;;;;;;;;;;5104552;27;20884;-73
2022/06/26 00:40:09;;;;;;;1999.90;999.90;;;;;;;;;;5123930;27;20428;-71
2022/06/26 00:42:37;;;;;;;1999.90;999.90;;;;;;;;;;5123255;27;21191;-71
2022/06/26 00:45:06;;;;;;;1999.90;999.90;;;;;;;;;;5125975;27;20451;-72
2022/06/26 00:47:34;;;;;;;1999.90;999.90;;;;;;;;;;5124070;27;20381;-71
2022/06/26 00:50:05;;;;;;;1999.90;999.90;;;;;;;;;;5124803;27;20387;-71
2022/06/26 00:52:33;;;;;;;1999.90;999.90;;;;;;;;;;5123065;27;20947;-71
2022/06/26 00:55:01;;;;;;;1999.90;999.90;;;;;;;;;;5124377;27;21276;-70
2022/06/26 00:57:29;;;;;;;1999.90;999.90;;;;;;;;;;5123852;27;20584;-71
2022/06/26 00:59:57;;;;;;;1999.90;999.90;;;;;;;;;;5107973;27;20402;-71
2022/06/26 01:02:25;;;;;;;1999.90;999.90;;;;;;;;;;5124132;27;20435;-69
2022/06/26 01:04:53;;;;;;;1999.90;999.90;;;;;;;;;;5126004;27;20413;-71
2022/06/26 01:07:32;;;;;;;1999.90;999.90;;;;;;;;;;5122037;22;20388;-81
2022/06/26 01:10:03;;;;;;;1999.90;999.90;;;;;;;;;;5076525;27;20395;-71
2022/06/26 01:12:30;;;;;;;1999.90;999.90;;;;;;;;;;5087228;27;20402;-73
2022/06/26 01:15:01;;;;;;;1999.90;999.90;;;;;;;;;;5086130;27;20403;-73
2022/06/26 01:17:30;;;;;;;1999.90;999.90;;;;;;;;;;5105053;27;20403;-73
2022/06/26 01:19:59;;;;;;;1999.90;999.90;;;;;;;;;;5105237;27;21816;-73
2022/06/26 01:22:29;;;;;;;1999.90;999.90;;;;;;;;;;5086711;27;20475;-73
2022/06/26 01:24:56;;;;;;;1999.90;999.90;;;;;;;;;;5079190;27;20407;-72
2022/06/26 01:27:24;;;;;;;1999.90;999.90;;;;;;;;;;5083852;27;20385;-71
2022/06/26 01:29:53;;;;;;;1999.90;999.90;;;;;;;;;;5085804;27;20391;-72
2022/06/26 01:32:21;;;;;;;1999.90;999.90;;;;;;;;;;5086822;27;20406;-72
2022/06/26 01:34:50;;;;;;;1999.90;999.90;;;;;;;;;;5085807;27;20469;-72
2022/06/26 01:37:18;;;;;;;1999.90;999.90;;;;;;;;;;5069163;27;20984;-72
2022/06/26 01:39:48;;;;;;;1999.90;999.90;;;;;;;;;;5069752;27;20434;-72
2022/06/26 01:42:16;;;;;;;1999.90;999.90;;;;;;;;;;5087440;27;20387;-74
2022/06/26 01:44:45;;;;;;;1999.90;999.90;;;;;;;;;;5070555;27;31092;-72
2022/06/26 01:47:13;;;;;;;1999.90;999.90;;;;;;;;;;5081944;27;20390;-71
2022/06/26 01:49:41;;;;;;;1999.90;999.90;;;;;;;;;;5070523;27;20470;-71
2022/06/26 01:52:09;;;;;;;1999.90;999.90;;;;;;;;;;5106934;27;20415;-72
2022/06/26 01:54:37;;;;;;;1999.90;999.90;;;;;;;;;;5089223;27;20402;-72
2022/06/26 01:57:06;;;;;;;1999.90;999.90;;;;;;;;;;5104054;27;21225;-72
2022/06/26 01:59:34;;;;;;;1999.90;999.90;;;;;;;;;;5088813;27;20491;-72
2022/06/26 02:02:04;;;;;;;1999.90;999.90;;;;;;;;;;5077646;27;21061;-71
2022/06/26 02:04:32;;;;;;;1999.90;999.90;;;;;;;;;;5086374;27;20832;-71
2022/06/26 02:07:00;;;;;;;1999.90;999.90;;;;;;;;;;5084249;27;20844;-72
2022/06/26 02:15:07;;;;;;;1999.90;999.90;;;;;;;;;;5104696;27;20775;-72
2022/06/26 02:17:35;;;;;;;1999.90;999.90;;;;;;;;;;5087587;27;20398;-72
2022/06/26 02:20:04;;;;;;;1999.90;999.90;;;;;;;;;;5087584;27;20387;-71
2022/06/26 02:22:33;;;;;;;1999.90;999.90;;;;;;;;;;5082449;27;20437;-72
2022/06/26 02:25:01;;;;;;;1999.90;999.90;;;;;;;;;;5072649;27;20401;-71
2022/06/26 02:27:31;;;;;;;1999.90;999.90;;;;;;;;;;5098643;27;20415;-72
2022/06/26 02:29:59;;;;;;;1999.90;999.90;;;;;;;;;;5089153;27;20428;-72
2022/06/26 02:32:27;;;;;;;1999.90;999.90;;;;;;;;;;5073881;27;20404;-72
2022/06/26 02:34:55;;;;;;;1999.90;999.90;;;;;;;;;;5091506;27;20402;-73
2022/06/26 02:37:23;;;;;;;1999.90;999.90;;;;;;;;;;5088176;27;20948;-72
2022/06/26 02:39:51;;;;;;;1999.90;999.90;;;;;;;;;;5092526;27;20969;-73
2022/06/26 02:42:22;;;;;;;1999.90;999.90;;;;;;;;;;5088378;27;20453;-72
2022/06/26 02:44:52;;;;;;;1999.90;999.90;;;;;;;;;;5102228;27;20412;-72
2022/06/26 02:47:20;;;;;;;1999.90;999.90;;;;;;;;;;5091409;27;20371;-73
2022/06/26 02:49:48;;;;;;;1999.90;999.90;;;;;;;;;;5113205;27;20428;-72
2022/06/26 02:52:15;;;;;;;1999.90;999.90;;;;;;;;;;5089175;27;20411;-72
2022/06/26 02:54:43;;;;;;;1999.90;999.90;;;;;;;;;;5094794;27;20994;-73
2022/06/26 02:57:11;;;;;;;1999.90;999.90;;;;;;;;;;5090528;27;20394;-72
2022/06/26 02:59:39;;;;;;;1999.90;999.90;;;;;;;;;;5089562;27;20502;-74
2022/06/26 03:02:09;;;;;;;1999.90;999.90;;;;;;;;;;5097615;27;20434;-74
2022/06/26 03:04:44;;;;;;;1999.90;999.90;;;;;;;;;;5081593;27;20403;-72
2022/06/26 03:07:16;;;;;;;1999.90;999.90;;;;;;;;;;5095692;27;20784;-72
2022/06/26 03:09:45;;;;;;;1999.90;999.90;;;;;;;;;;5078214;27;20407;-72
2022/06/26 03:12:13;;;;;;;1999.90;999.90;;;;;;;;;;5079547;27;20414;-74
2022/06/26 03:14:42;;;;;;;1999.90;999.90;;;;;;;;;;5080605;27;21199;-73
2022/06/26 03:17:11;;;;;;;1999.90;999.90;;;;;;;;;;5097466;27;20948;-72
2022/06/26 03:19:39;;;;;;;1999.90;999.90;;;;;;;;;;5080693;27;20506;-72
2022/06/26 03:22:07;;;;;;;1999.90;999.90;;;;;;;;;;5093371;27;20383;-72
2022/06/26 03:24:35;;;;;;;1999.90;999.90;;;;;;;;;;5079872;27;20409;-72
2022/06/26 03:27:03;;;;;;;1999.90;999.90;;;;;;;;;;5081544;27;20405;-72
2022/06/26 03:29:32;;;;;;;1999.90;999.90;;;;;;;;;;5108887;27;20419;-73
2022/06/26 03:32:04;;;;;;;1999.90;999.90;;;;;;;;;;5077437;27;20386;-72
2022/06/26 03:34:35;;;;;;;1999.90;999.90;;;;;;;;;;5094980;27;21249;-72
2022/06/26 03:37:03;;;;;;;1999.90;999.90;;;;;;;;;;5073863;27;20392;-72
2022/06/26 03:39:31;;;;;;;1999.90;999.90;;;;;;;;;;5105704;27;20460;-72
2022/06/26 03:42:00;;;;;;;1999.90;999.90;;;;;;;;;;5091273;27;20413;-73
2022/06/26 03:44:32;;;;;;;1999.90;999.90;;;;;;;;;;5070352;27;20431;-72
2022/06/26 03:47:00;;;;;;;1999.90;999.90;;;;;;;;;;5073806;27;20390;-72
2022/06/26 03:49:27;;;;;;;1999.90;999.90;;;;;;;;;;5072973;27;20374;-72
2022/06/26 03:52:01;;;;;;;1999.90;999.90;;;;;;;;;;5073377;27;20407;-72
2022/06/26 03:54:30;;;;;;;1999.90;999.90;;;;;;;;;;5087234;27;21198;-72
2022/06/26 03:56:58;;;;;;;1999.90;999.90;;;;;;;;;;5074504;27;20383;-72
2022/06/26 03:59:29;;;;;;;1999.90;999.90;;;;;;;;;;5070892;27;20412;-71
2022/06/26 04:01:59;;;;;;;1999.90;999.90;;;;;;;;;;5067454;27;20498;-72
2022/06/26 04:04:29;;;;;;;1999.90;999.90;;;;;;;;;;5069891;27;21100;-72
2022/06/26 04:06:57;;;;;;;1999.90;999.90;;;;;;;;;;5086776;27;20426;-73
2022/06/26 04:09:33;;;;;;;1999.90;999.90;;;;;;;;;;5070726;27;20898;-72
2022/06/26 04:12:01;;;;;;;1999.90;999.90;;;;;;;;;;5084809;27;20943;-72
2022/06/26 04:14:34;;;;;;;1999.90;999.90;;;;;;;;;;5088874;27;20403;-72
2022/06/26 04:17:01;;;;;;;1999.90;999.90;;;;;;;;;;5088282;27;20451;-72
2022/06/26 04:19:29;;;;;;;1999.90;999.90;;;;;;;;;;5070878;27;20423;-71
2022/06/26 04:21:59;;;;;;;1999.90;999.90;;;;;;;;;;5100219;27;20415;-71
2022/06/26 04:24:27;;;;;;;1999.90;999.90;;;;;;;;;;5072525;27;20501;-71
2022/06/26 04:26:56;;;;;;;1999.90;999.90;;;;;;;;;;5072276;27;20405;-71
2022/06/26 04:29:26;;;;;;;1999.90;999.90;;;;;;;;;;5087351;27;20492;-71
2022/06/26 04:31:54;;;;;;;1999.90;999.90;;;;;;;;;;5074766;27;20540;-70
2022/06/26 04:34:24;;;;;;;1999.90;999.90;;;;;;;;;;5089883;27;20377;-71
2022/06/26 04:36:53;;;;;;;1999.90;999.90;;;;;;;;;;5083490;27;20412;-71
2022/06/26 04:39:22;;;;;;;1999.90;999.90;;;;;;;;;;5106038;27;20412;-71
2022/06/26 04:41:50;;;;;;;1999.90;999.90;;;;;;;;;;5091577;27;20931;-72
2022/06/26 04:44:19;;;;;;;1999.90;999.90;;;;;;;;;;5073600;27;20474;-71
2022/06/26 04:46:53;;;;;;;1999.90;999.90;;;;;;;;;;5072741;27;21273;-71
2022/06/26 04:49:24;;;;;;;1999.90;999.90;;;;;;;;;;5089827;27;20496;-71
2022/06/26 04:51:51;;;;;;;1999.90;999.90;;;;;;;;;;5089427;27;20457;-71
2022/06/26 04:54:27;;;;;;;1999.90;999.90;;;;;;;;;;5089420;27;20424;-72
2022/06/26 04:56:54;;;;;;;1999.90;999.90;;;;;;;;;;5073849;27;20402;-69
2022/06/26 04:59:23;;;;;;;1999.90;999.90;;;;;;;;;;5067552;27;20755;-73
2022/06/26 05:01:57;;;;;;;1999.90;999.90;;;;;;;;;;5088552;27;20526;-73
2022/06/26 05:04:40;;;;;;;1999.90;999.90;;;;;;;;;;5090069;27;20403;-72
2022/06/26 05:07:17;;;;;;;1999.90;999.90;;;;;;;;;;5103664;27;20431;-72
2022/06/26 05:09:45;;;;;;;1999.90;999.90;;;;;;;;;;5088946;27;21509;-70
2022/06/26 05:12:13;;;;;;;1999.90;999.90;;;;;;;;;;5074437;27;20384;-69
2022/06/26 05:15:06;;;;;;;1999.90;999.90;;;;;;;;;;5109500;27;20419;-71
2022/06/26 05:17:44;;;;;;;1999.90;999.90;;;;;;;;;;5109702;27;21314;-71
2022/06/26 05:20:16;;;;;;;1999.90;999.90;;;;;;;;;;5091579;27;20418;-70
2022/06/26 05:22:43;;;;;;;1999.90;999.90;;;;;;;;;;5073182;27;20375;-70
2022/06/26 05:25:12;;;;;;;1999.90;999.90;;;;;;;;;;5085014;27;20429;-70
2022/06/26 05:27:40;;;;;;;1999.90;999.90;;;;;;;;;;5082352;27;20450;-70
2022/06/26 05:30:10;;;;;;;1999.90;999.90;;;;;;;;;;5071252;27;21324;-70
2022/06/26 05:32:40;;;;;;;1999.90;999.90;;;;;;;;;;5070272;27;21861;-70
2022/06/26 05:35:13;;;;;;;1999.90;999.90;;;;;;;;;;5074292;27;20418;-71
2022/06/26 05:37:40;;;;;;;1999.90;999.90;;;;;;;;;;5072154;27;21048;-70
2022/06/26 05:40:09;;;;;;;1999.90;999.90;;;;;;;;;;5096313;27;20414;-69
2022/06/26 05:42:40;;;;;;;1999.90;999.90;;;;;;;;;;5088510;27;20430;-70
2022/06/26 05:45:11;;;;;;;1999.90;999.90;;;;;;;;;;5071320;27;20517;-68
2022/06/26 05:47:43;;;;;;;1999.90;999.90;;;;;;;;;;5103300;27;20391;-70
2022/06/26 05:50:31;;;;;;;1999.90;999.90;;;;;;;;;;5089203;27;20933;-70
2022/06/26 05:53:15;;;;;;;1999.90;999.90;;;;;;;;;;5086083;27;20394;-70
2022/06/26 05:56:02;;;;;;;1999.90;999.90;;;;;;;;;;5102261;27;20411;-70
2022/06/26 05:58:59;;;;;;;1999.90;999.90;;;;;;;;;;5048880;27;20553;-70
2022/06/26 06:01:46;;;;;;;1999.90;999.90;;;;;;;;;;5104452;27;20878;-70
2022/06/26 06:04:18;;;;;;;1999.90;999.90;;;;;;;;;;5089560;27;20394;-69
2022/06/26 06:06:46;;;;;;;1999.90;999.90;;;;;;;;;;5084774;27;20430;-71
2022/06/26 06:09:14;;;;;;;1999.90;999.90;;;;;;;;;;5085869;27;20407;-70
2022/06/26 06:11:42;;;;;;;1999.90;999.90;;;;;;;;;;5088425;27;20445;-70
2022/06/26 06:14:15;;;;;;;1999.90;999.90;;;;;;;;;;5087827;27;20399;-70
2022/06/26 06:16:43;;;;;;;1999.90;999.90;;;;;;;;;;5081436;27;20784;-70
2022/06/26 06:19:12;;;;;;;1999.90;999.90;;;;;;;;;;5105749;27;20471;-70
2022/06/26 06:21:44;;;;;;;1999.90;999.90;;;;;;;;;;5070673;27;20415;-70
2022/06/26 06:24:11;;;;;;;1999.90;999.90;;;;;;;;;;5067632;27;20407;-70
2022/06/26 06:26:40;;;;;;;1999.90;999.90;;;;;;;;;;5104668;27;21274;-70
2022/06/26 06:29:20;;;;;;;1999.90;999.90;;;;;;;;;;5069102;27;20415;-70
2022/06/26 06:31:47;;;;;;;1999.90;999.90;;;;;;;;;;5088727;27;20399;-71
2022/06/26 06:34:20;;;;;;;1999.90;999.90;;;;;;;;;;5086640;27;21218;-70
2022/06/26 06:36:50;;;;;;;1999.90;999.90;;;;;;;;;;5087267;27;20506;-71
2022/06/26 06:39:18;;;;;;;1999.90;999.90;;;;;;;;;;5068148;27;20381;-70
2022/06/26 06:41:50;;;;;;;1999.90;999.90;;;;;;;;;;5070903;27;20478;-70
2022/06/26 06:44:17;;;;;;;1999.90;999.90;;;;;;;;;;5086048;27;20422;-70
2022/06/26 06:47:04;;;;;;;1999.90;999.90;;;;;;;;;;5095916;27;20418;-70
2022/06/26 06:49:44;;;;;;;1999.90;999.90;;;;;;;;;;5068404;27;20455;-71
2022/06/26 06:52:13;;;;;;;1999.90;999.90;;;;;;;;;;5083698;27;20573;-71
2022/06/26 06:54:41;;;;;;;1999.90;999.90;;;;;;;;;;5065226;27;20422;-70
2022/06/26 06:57:08;;;;;;;1999.90;999.90;;;;;;;;;;5078534;27;20427;-70
2022/06/26 06:59:36;;;;;;;1999.90;999.90;;;;;;;;;;5065586;27;20474;-71
2022/06/26 07:02:04;;;;;;;1999.90;999.90;;;;;;;;;;5084864;27;20409;-71
2022/06/26 07:04:34;;;;;;;1999.90;999.90;;;;;;;;;;5063849;27;20795;-73
2022/06/26 07:07:04;;;;;;;1999.90;999.90;;;;;;;;;;5068004;27;20461;-71
2022/06/26 07:09:32;;;;;;;1999.90;999.90;;;;;;;;;;5083546;27;20896;-70
2022/06/26 07:12:01;;;;;;;1999.90;999.90;;;;;;;;;;5086907;27;20398;-70
2022/06/26 07:14:29;;;;;;;1999.90;999.90;;;;;;;;;;5069221;27;20481;-71
2022/06/26 07:16:57;;;;;;;1999.90;999.90;;;;;;;;;;5132830;22;20502;-69
2022/06/26 07:19:24;;;;;;;1999.90;999.90;;;;;;;;;;5118036;27;20398;-70
2022/06/26 07:21:53;;;;;;;1999.90;999.90;;;;;;;;;;5120013;27;20471;-72
2022/06/26 07:24:22;;;;;;;1999.90;999.90;;;;;;;;;;5103060;27;20452;-73
2022/06/26 07:27:22;;;;;;;1999.90;999.90;;;;;;;;;;5094564;27;20434;-71
2022/06/26 07:29:50;;;;;;;1999.90;999.90;;;;;;;;;;5103230;27;20412;-71
2022/06/26 07:32:19;;;;;;;1999.90;999.90;;;;;;;;;;5119052;27;20504;-72
2022/06/26 07:34:46;;;;;;;1999.90;999.90;;;;;;;;;;5118763;27;20428;-72
2022/06/26 07:37:14;;;;;;;1999.90;999.90;;;;;;;;;;5117066;27;20668;-73
2022/06/26 07:39:45;;;;;;;1999.90;999.90;;;;;;;;;;5099949;27;20392;-71
2022/06/26 07:42:12;;;;;;;1999.90;999.90;;;;;;;;;;5101062;27;21258;-70
2022/06/26 07:44:44;;;;;;;1999.90;999.90;;;;;;;;;;5100643;27;21005;-70
2022/06/26 07:47:14;;;;;;;1999.90;999.90;;;;;;;;;;5119179;27;20404;-70
2022/06/26 07:49:56;;;;;;;1999.90;999.90;;;;;;;;;;5101043;27;20396;-71
2022/06/26 07:52:24;;;;;;;1999.90;999.90;;;;;;;;;;5117521;27;20391;-73
2022/06/26 07:54:53;;;;;;;1999.90;999.90;;;;;;;;;;5119027;27;20388;-72
2022/06/26 07:57:21;;;;;;;1999.90;999.90;;;;;;;;;;5115955;27;20836;-71
2022/06/26 07:59:49;;;;;;;1999.90;999.90;;;;;;;;;;5136878;27;20403;-68
2022/06/26 08:02:16;;;;;;;1999.90;999.90;;;;;;;;;;5137183;27;20530;-71
2022/06/26 08:04:44;;;;;;;1999.90;999.90;;;;;;;;;;5138242;27;20404;-75
2022/06/26 08:07:12;;;;;;;1999.90;999.90;;;;;;;;;;5135341;27;20407;-74
2022/06/26 08:09:40;;;;;;;1999.90;999.90;;;;;;;;;;5115709;27;20426;-71
2022/06/26 08:12:09;;;;;;;1999.90;999.90;;;;;;;;;;5133140;27;20402;-73
2022/06/26 08:14:37;;;;;;;1999.90;999.90;;;;;;;;;;5133785;27;20470;-71
2022/06/26 08:17:05;;;;;;;1999.90;999.90;;;;;;;;;;5138306;27;20590;-73
2022/06/26 08:19:33;;;;;;;1999.90;999.90;;;;;;;;;;5107081;27;20392;-71
2022/06/26 08:22:04;;;;;;;1999.90;999.90;;;;;;;;;;5122865;27;20395;-71
2022/06/26 08:24:32;;;;;;;1999.90;999.90;;;;;;;;;;5123784;27;20380;-70
2022/06/26 08:27:00;;;;;;;1999.90;999.90;;;;;;;;;;5139525;27;20441;-70
2022/06/26 08:29:29;;;;;;;1999.90;999.90;;;;;;;;;;5143018;27;20388;-70
2022/06/26 08:31:57;;;;;;;1999.90;999.90;;;;;;;;;;5142384;27;20392;-71
2022/06/26 08:34:25;;;;;;;1999.90;999.90;;;;;;;;;;5141208;27;20408;-73
2022/06/26 08:36:54;;;;;;;1999.90;999.90;;;;;;;;;;5122527;27;20439;-71
2022/06/26 08:39:21;;;;;;;1999.90;999.90;;;;;;;;;;5141483;27;20857;-72
2022/06/26 08:41:52;;;;;;;1999.90;999.90;;;;;;;;;;5141401;27;20439;-72
2022/06/26 08:44:19;;;;;;;1999.90;999.90;;;;;;;;;;5141344;27;20528;-70
2022/06/26 08:46:49;;;;;;;1999.90;999.90;;;;;;;;;;5141311;27;20492;-73
2022/06/26 08:49:19;;;;;;;1999.90;999.90;;;;;;;;;;5123510;27;20403;-71
2022/06/26 08:51:47;;;;;;;1999.90;999.90;;;;;;;;;;5121208;27;20998;-71
2022/06/26 08:54:15;;;;;;;1999.90;999.90;;;;;;;;;;5119587;27;20449;-70
2022/06/26 08:56:44;;;;;;;1999.90;999.90;;;;;;;;;;5139187;27;21185;-72
2022/06/26 08:59:12;;;;;;;1999.90;999.90;;;;;;;;;;5095975;27;20368;-72
2022/06/26 09:01:41;;;;;;;1999.90;999.90;;;;;;;;;;5135284;27;20642;-70
2022/06/26 09:04:10;;;;;;;1999.90;999.90;;;;;;;;;;5136414;27;21432;-74
2022/06/26 09:06:39;;;;;;;1999.90;999.90;;;;;;;;;;5118167;27;20412;-72
2022/06/26 09:09:13;;;;;;;1999.90;999.90;;;;;;;;;;5119774;27;20494;-70
2022/06/26 09:11:41;;;;;;;1999.90;999.90;;;;;;;;;;5132767;27;20391;-70
2022/06/26 09:14:10;;;;;;;1999.90;999.90;;;;;;;;;;5119455;27;20517;-72
2022/06/26 09:16:39;;;;;;;1999.90;999.90;;;;;;;;;;5116707;27;20889;-69
2022/06/26 09:19:08;;;;;;;1999.90;999.90;;;;;;;;;;5120913;27;20464;-70
2022/06/26 09:21:37;;;;;;;1999.90;999.90;;;;;;;;;;5135479;27;20453;-71
2022/06/26 09:24:08;;;;;;;1999.90;999.90;;;;;;;;;;5120997;27;20497;-73
2022/06/26 09:26:36;;;;;;;1999.90;999.90;;;;;;;;;;5114324;27;21270;-71
2022/06/26 09:29:08;;;;;;;1999.90;999.90;;;;;;;;;;5121977;27;20399;-70
2022/06/26 09:31:37;;;;;;;1999.90;999.90;;;;;;;;;;5142616;27;20416;-70
2022/06/26 09:34:05;;;;;;;1999.90;999.90;;;;;;;;;;5140943;27;20389;-71
2022/06/26 09:36:33;;;;;;;1999.90;999.90;;;;;;;;;;5121682;27;20406;-73
2022/06/26 09:39:06;;;;;;;1999.90;999.90;;;;;;;;;;5139463;27;20415;-71
2022/06/26 09:41:35;;;;;;;1999.90;999.90;;;;;;;;;;5118283;27;21273;-72
2022/06/26 09:44:03;;;;;;;1999.90;999.90;;;;;;;;;;5135982;27;20515;-69
2022/06/26 09:46:32;;;;;;;1999.90;999.90;;;;;;;;;;5139439;27;20396;-73
2022/06/26 09:49:00;;;;;;;1999.90;999.90;;;;;;;;;;5121536;27;20475;-73
2022/06/26 09:51:28;;;;;;;1999.90;999.90;;;;;;;;;;5123481;27;20480;-71
2022/06/26 09:53:56;;;;;;;1999.90;999.90;;;;;;;;;;5139253;27;20403;-71
2022/06/26 09:56:25;;;;;;;1999.90;999.90;;;;;;;;;;5133511;27;20450;-73
2022/06/26 09:58:54;;;;;;;1999.90;999.90;;;;;;;;;;5138856;27;20392;-70
2022/06/26 10:06:56;;;;;;;1999.90;999.90;;;;;;;;;;5136791;27;20960;-74
2022/06/26 10:09:24;;;;;;;1999.90;999.90;;;;;;;;;;5119390;27;21321;-71
2022/06/26 10:11:54;;;;;;;1999.90;999.90;;;;;;;;;;5132958;27;20906;-71
2022/06/26 10:14:24;;;;;;;1999.90;999.90;;;;;;;;;;5133571;27;20404;-71
2022/06/26 10:17:07;;;;;;;1999.90;999.90;;;;;;;;;;5118752;27;20461;-72
2022/06/26 10:19:39;;;;;;;1999.90;999.90;;;;;;;;;;5116673;27;20431;-73
2022/06/26 10:22:08;;;;;;;1999.90;999.90;;;;;;;;;;5116702;27;20486;-72
2022/06/26 10:24:35;;;;;;;1999.90;999.90;;;;;;;;;;5128147;27;20400;-72
2022/06/26 10:27:05;;;;;;;1999.90;999.90;;;;;;;;;;5133674;27;21354;-72
2022/06/26 10:29:34;;;;;;;1999.90;999.90;;;;;;;;;;5114952;27;20402;-73
2022/06/26 10:32:02;;;;;;;1999.90;999.90;;;;;;;;;;5112959;27;21440;-72
2022/06/26 10:34:31;;;;;;;1999.90;999.90;;;;;;;;;;5131577;27;20384;-73
2022/06/26 10:37:00;;;;;;;1999.90;999.90;;;;;;;;;;5132511;27;20469;-71
2022/06/26 10:39:41;;;;;;;1999.90;999.90;;;;;;;;;;5135015;27;20495;-73
2022/06/26 10:45:03;;;;;;;1999.90;999.90;;;;;;;;;;5125421;27;20445;-73
2022/06/26 10:47:40;;;;;;;1999.90;999.90;;;;;;;;;;5116331;27;20403;-74
2022/06/26 10:50:23;;;;;;;1999.90;999.90;;;;;;;;;;5131976;27;20912;-73
2022/06/26 10:52:51;;;;;;;1999.90;999.90;;;;;;;;;;5128489;27;20523;-73
2022/06/26 10:55:19;;;;;;;1999.90;999.90;;;;;;;;;;5113747;27;20480;-74
2022/06/26 10:57:49;;;;;;;1999.90;999.90;;;;;;;;;;5129070;27;20410;-71
2022/06/26 11:00:17;;;;;;;1999.90;999.90;;;;;;;;;;5128696;27;20472;-74
2022/06/26 11:02:46;;;;;;;1999.90;999.90;;;;;;;;;;5133022;27;20438;-70
2022/06/26 11:05:14;;;;;;;1999.90;999.90;;;;;;;;;;5096787;27;20404;-71
2022/06/26 11:07:46;;;;;;;1999.90;999.90;;;;;;;;;;5133284;27;20888;-71
2022/06/26 11:10:14;;;;;;;1999.90;999.90;;;;;;;;;;5114752;27;20400;-72
2022/06/26 11:12:43;;;;;;;1999.90;999.90;;;;;;;;;;5114605;27;20387;-73
2022/06/26 11:15:27;;;;;;;1999.90;999.90;;;;;;;;;;5133201;27;20467;-71
2022/06/26 11:17:55;;;;;;;1999.90;999.90;;;;;;;;;;5131102;27;20396;-71
2022/06/26 11:23:13;;;;;;;1999.90;999.90;;;;;;;;;;5117658;27;20386;-71
2022/06/26 11:25:41;;;;;;;1999.90;999.90;;;;;;;;;;5135621;27;20484;-73
2022/06/26 11:28:09;;;;;;;1999.90;999.90;;;;;;;;;;5135837;27;20403;-73
2022/06/26 11:30:39;;;;;;;1999.90;999.90;;;;;;;;;;5118091;27;21337;-71
2022/06/26 11:33:07;;;;;;;1999.90;999.90;;;;;;;;;;5138569;27;20396;-73
2022/06/26 11:35:35;;;;;;;1999.90;999.90;;;;;;;;;;5122270;27;21266;-72
2022/06/26 11:38:10;;;;;;;1999.90;999.90;;;;;;;;;;5121832;27;20418;-72
2022/06/26 11:40:38;;;;;;;1999.90;999.90;;;;;;;;;;5104512;27;20400;-74
2022/06/26 11:43:06;;;;;;;1999.90;999.90;;;;;;;;;;5118272;27;20596;-71
2022/06/26 11:45:34;;;;;;;1999.90;999.90;;;;;;;;;;5118837;27;20398;-73
2022/06/26 11:48:06;;;;;;;1999.90;999.90;;;;;;;;;;5119858;27;20415;-74
2022/06/26 11:50:34;;;;;;;1999.90;999.90;;;;;;;;;;5123171;27;20407;-74
2022/06/26 11:53:03;;;;;;;1999.90;999.90;;;;;;;;;;5120132;27;20396;-72
2022/06/26 11:55:32;;;;;;;1999.90;999.90;;;;;;;;;;5138480;27;20418;-75
2022/06/26 11:58:01;;;;;;;1999.90;999.90;;;;;;;;;;5138819;27;20418;-69
2022/06/26 12:00:29;;;;;;;1999.90;999.90;;;;;;;;;;5137946;27;20414;-75
2022/06/26 12:02:57;;;;;;;1999.90;999.90;;;;;;;;;;5138007;27;20406;-74
2022/06/26 12:05:27;;;;;;;1999.90;999.90;;;;;;;;;;5103833;27;21185;-72
2022/06/26 12:07:55;;;;;;;1999.90;999.90;;;;;;;;;;5120577;27;20396;-72
2022/06/26 12:10:27;;;;;;;1999.90;999.90;;;;;;;;;;5123473;27;20388;-74
2022/06/26 12:12:55;;;;;;;1999.90;999.90;;;;;;;;;;5139770;27;20415;-72
2022/06/26 12:15:30;;;;;;;1999.90;999.90;;;;;;;;;;5132032;27;20382;-73
2022/06/26 12:17:59;;;;;;;1999.90;999.90;;;;;;;;;;5119676;27;20411;-75
2022/06/26 12:20:28;;;;;;;1999.90;999.90;;;;;;;;;;5118598;27;21453;-73
2022/06/26 12:22:56;;;;;;;1999.90;999.90;;;;;;;;;;5118845;27;20372;-75
2022/06/26 12:25:25;;;;;;;1999.90;999.90;;;;;;;;;;5141765;27;20428;-75
2022/06/26 12:27:53;;;;;;;1999.90;999.90;;;;;;;;;;5141821;27;20420;-73
2022/06/26 12:30:22;;;;;;;1999.90;999.90;;;;;;;;;;5122854;27;20392;-75
2022/06/26 12:32:55;;;;;;;1999.90;999.90;;;;;;;;;;5140733;27;20395;-75
2022/06/26 12:35:23;;;;;;;1999.90;999.90;;;;;;;;;;5143222;27;20407;-73
2022/06/26 12:37:52;;;;;;;1999.90;999.90;;;;;;;;;;5105899;27;20411;-73
2022/06/26 12:40:20;;;;;;;1999.90;999.90;;;;;;;;;;5144206;27;20445;-72
2022/06/26 12:42:48;;;;;;;1999.90;999.90;;;;;;;;;;5125488;27;21080;-73
2022/06/26 12:45:16;;;;;;;1999.90;999.90;;;;;;;;;;5120275;27;20399;-76
2022/06/26 12:47:44;;;;;;;1999.90;999.90;;;;;;;;;;5120144;27;20427;-74
2022/06/26 12:50:13;;;;;;;1999.90;999.90;;;;;;;;;;5122323;27;20391;-75
2022/06/26 12:52:41;;;;;;;1999.90;999.90;;;;;;;;;;5124073;27;20802;-73
2022/06/26 12:55:10;;;;;;;1999.90;999.90;;;;;;;;;;5143522;27;20905;-72
2022/06/26 12:57:38;;;;;;;1999.90;999.90;;;;;;;;;;5111425;27;20411;-73
2022/06/26 13:00:07;;;;;;;1999.90;999.90;;;;;;;;;;5136164;27;20399;-71
2022/06/26 13:02:35;;;;;;;1999.90;999.90;;;;;;;;;;5102317;27;20396;-71
2022/06/26 13:05:03;;;;;;;1999.90;999.90;;;;;;;;;;5139553;27;20873;-70
2022/06/26 13:07:31;;;;;;;1999.90;999.90;;;;;;;;;;5119247;27;20773;-72
2022/06/26 13:10:00;;;;;;;1999.90;999.90;;;;;;;;;;5119526;27;20452;-73
2022/06/26 13:12:29;;;;;;;1999.90;999.90;;;;;;;;;;5114842;27;20957;-71
2022/06/26 13:14:57;;;;;;;1999.90;999.90;;;;;;;;;;5134122;27;20400;-74
2022/06/26 13:17:24;;;;;;;1999.90;999.90;;;;;;;;;;5151190;22;20404;-71
2022/06/26 13:19:52;;;;;;;1999.90;999.90;;;;;;;;;;5124450;27;20396;-72
2022/06/26 13:22:20;;;;;;;1999.90;999.90;;;;;;;;;;5133234;27;20395;-72
2022/06/26 13:24:48;;;;;;;1999.90;999.90;;;;;;;;;;5116105;27;20412;-72
2022/06/26 13:27:16;;;;;;;1999.90;999.90;;;;;;;;;;5127200;27;21343;-72
2022/06/26 13:29:45;;;;;;;1999.90;999.90;;;;;;;;;;5134573;27;20922;-72
2022/06/26 13:32:23;;;;;;;1999.90;999.90;;;;;;;;;;5131049;27;21077;-72
2022/06/26 13:34:51;;;;;;;1999.90;999.90;;;;;;;;;;5116568;27;20412;-71
2022/06/26 13:37:19;;;;;;;1999.90;999.90;;;;;;;;;;5132298;27;20920;-71
2022/06/26 13:39:46;;;;;;;1999.90;999.90;;;;;;;;;;5132538;27;20408;-70
2022/06/26 13:42:14;;;;;;;1999.90;999.90;;;;;;;;;;5123109;27;20404;-71
2022/06/26 13:44:42;;;;;;;1999.90;999.90;;;;;;;;;;5132648;27;20384;-70
2022/06/26 13:47:11;;;;;;;1999.90;999.90;;;;;;;;;;5125589;27;21251;-70
2022/06/26 13:49:40;;;;;;;1999.90;999.90;;;;;;;;;;5112299;27;20933;-69
2022/06/26 13:52:08;;;;;;;1999.90;999.90;;;;;;;;;;5131035;27;20480;-71
2022/06/26 13:54:36;;;;;;;1999.90;999.90;;;;;;;;;;5135166;27;20384;-71
2022/06/26 13:57:04;;;;;;;1999.90;999.90;;;;;;;;;;5133185;27;20409;-71
2022/06/26 13:59:32;;;;;;;1999.90;999.90;;;;;;;;;;5134604;27;20802;-70
2022/06/26 14:02:00;;;;;;;1999.90;999.90;;;;;;;;;;5132923;27;20407;-71
2022/06/26 14:04:30;;;;;;;1999.90;999.90;;;;;;;;;;5129688;27;20501;-69
2022/06/26 14:06:58;;;;;;;1999.90;999.90;;;;;;;;;;5134575;27;20400;-69
2022/06/26 14:09:25;;;;;;;1999.90;999.90;;;;;;;;;;5134550;27;20403;-70
2022/06/26 14:11:53;;;;;;;1999.90;999.90;;;;;;;;;;5127848;27;20657;-70